createdAt,value
2024-03-17T00:00:33.573Z,69.92
2024-03-17T00:01:33.699Z,69.82
2024-03-17T00:02:33.773Z,70.12
2024-03-17T00:03:33.818Z,69.92
2024-03-17T00:04:33.917Z,69.95
2024-03-17T00:05:33.979Z,70.23
2024-03-17T00:06:34.095Z,70.23
2024-03-17T00:07:34.181Z,70.03
2024-03-17T00:08:34.217Z,70.03
2024-03-17T00:09:34.340Z,70.03
2024-03-17T00:10:34.398Z,70.37
2024-03-17T00:11:34.490Z,70.26
2024-03-17T00:12:34.558Z,70.26
2024-03-17T00:13:34.624Z,70.26
2024-03-17T00:14:34.717Z,70.26
2024-03-17T00:15:34.768Z,70.78
2024-03-17T00:16:34.904Z,70.88
2024-03-17T00:17:34.910Z,70.78
2024-03-17T00:18:34.991Z,70.57
2024-03-17T00:19:35.054Z,70.57
2024-03-17T00:20:35.161Z,70.78
2024-03-17T00:21:35.334Z,70.98
2024-03-17T00:22:35.337Z,70.88
2024-03-17T00:23:35.398Z,70.98
2024-03-17T00:24:35.481Z,70.98
2024-03-17T00:25:35.564Z,71.19
2024-03-17T00:26:35.668Z,71.19
2024-03-17T00:27:35.706Z,71.30
2024-03-17T00:28:35.802Z,71.43
2024-03-17T00:29:35.860Z,71.64
2024-03-17T00:30:36.963Z,71.64
2024-03-17T00:31:36.072Z,71.53
2024-03-17T00:32:36.124Z,71.43
2024-03-17T00:33:36.259Z,71.43
2024-03-17T00:34:36.299Z,71.53
2024-03-17T00:35:36.368Z,71.74
2024-03-17T00:36:36.601Z,72.16
2024-03-17T00:37:36.614Z,72.57
2024-03-17T00:38:36.621Z,72.26
2024-03-17T00:39:36.693Z,72.05
2024-03-17T00:40:36.777Z,71.84
2024-03-17T00:41:36.895Z,71.95
2024-03-17T00:42:36.970Z,71.64
2024-03-17T00:43:37.026Z,71.40
2024-03-17T00:44:37.115Z,71.33
2024-03-17T00:45:37.184Z,71.43
2024-03-17T00:46:37.308Z,71.53
2024-03-17T00:47:37.339Z,71.74
2024-03-17T00:48:37.428Z,71.95
2024-03-17T00:49:37.502Z,71.95
2024-03-17T00:50:37.598Z,71.74
2024-03-17T00:51:37.704Z,71.53
2024-03-17T00:52:37.763Z,71.43
2024-03-17T00:53:37.822Z,71.64
2024-03-17T00:54:37.912Z,71.33
2024-03-17T00:55:38.002Z,71.95
2024-03-17T00:56:38.110Z,71.84
2024-03-17T00:57:38.171Z,71.74
2024-03-17T00:58:38.257Z,71.84
2024-03-17T00:59:38.397Z,71.84
2024-03-17T01:00:38.436Z,71.84
2024-03-17T01:01:38.554Z,71.95
2024-03-17T01:02:38.600Z,71.95
2024-03-17T01:03:38.689Z,72.36
2024-03-17T01:04:38.763Z,72.16
2024-03-17T01:05:38.846Z,71.95
2024-03-17T01:06:38.962Z,71.95
2024-03-17T01:07:39.036Z,72.19
2024-03-17T01:08:39.114Z,72.29
2024-03-17T01:09:39.205Z,72.29
2024-03-17T01:10:39.285Z,72.29
2024-03-17T01:11:39.400Z,72.19
2024-03-17T01:12:39.474Z,72.29
2024-03-17T01:13:39.538Z,72.19
2024-03-17T01:14:39.635Z,72.39
2024-03-17T01:15:39.716Z,72.39
2024-03-17T01:16:39.843Z,72.50
2024-03-17T01:17:39.904Z,72.19
2024-03-17T01:18:40.019Z,72.29
2024-03-17T01:19:40.094Z,72.39
2024-03-17T01:20:40.210Z,72.19
2024-03-17T01:21:40.310Z,72.19
2024-03-17T01:22:40.377Z,72.29
2024-03-17T01:23:40.459Z,72.19
2024-03-17T01:24:40.567Z,72.08
2024-03-17T01:25:40.645Z,71.78
2024-03-17T01:26:40.788Z,71.36
2024-03-17T01:27:40.835Z,71.57
2024-03-17T01:28:40.922Z,71.78
2024-03-17T01:29:41.016Z,71.88
2024-03-17T01:30:41.111Z,72.08
2024-03-17T01:31:41.220Z,72.19
2024-03-17T01:32:41.295Z,72.08
2024-03-17T01:33:41.398Z,71.98
2024-03-17T01:34:41.470Z,72.08
2024-03-17T01:35:41.564Z,72.29
2024-03-17T01:36:41.691Z,72.39
2024-03-17T01:37:42.470Z,72.71
2024-03-17T01:38:41.860Z,72.71
2024-03-17T01:39:41.929Z,72.81
2024-03-17T01:40:42.037Z,72.71
2024-03-17T01:41:42.139Z,72.60
2024-03-17T01:42:42.217Z,72.81
2024-03-17T01:43:42.289Z,72.81
2024-03-17T01:44:42.396Z,73.22
2024-03-17T01:45:42.482Z,72.91
2024-03-17T01:46:42.602Z,72.91
2024-03-17T01:47:42.661Z,73.12
2024-03-17T01:48:42.758Z,73.33
2024-03-17T01:49:42.831Z,73.33
2024-03-17T01:50:42.941Z,73.02
2024-03-17T01:51:43.053Z,73.02
2024-03-17T01:52:43.114Z,73.12
2024-03-17T01:53:43.196Z,73.15
2024-03-17T01:54:43.289Z,73.22
2024-03-17T01:55:43.389Z,73.15
2024-03-17T01:56:43.494Z,73.36
2024-03-17T01:57:43.562Z,73.46
2024-03-17T01:58:43.671Z,73.57
2024-03-17T01:59:43.744Z,73.67
2024-03-17T02:00:43.855Z,73.77
2024-03-17T02:01:43.965Z,73.88
2024-03-17T02:02:44.061Z,74.08
2024-03-17T02:03:44.130Z,74.19
2024-03-17T02:04:44.237Z,74.08
2024-03-17T02:05:44.341Z,74.19
2024-03-17T02:06:44.456Z,74.08
2024-03-17T02:07:44.515Z,73.98
2024-03-17T02:08:44.625Z,73.88
2024-03-17T02:09:44.705Z,73.67
2024-03-17T02:10:44.808Z,73.57
2024-03-17T02:11:44.923Z,73.57
2024-03-17T02:12:45.019Z,73.57
2024-03-17T02:13:45.070Z,73.57
2024-03-17T02:14:45.156Z,73.67
2024-03-17T02:15:45.245Z,73.67
2024-03-17T02:16:45.383Z,73.88
2024-03-17T02:17:45.425Z,74.19
2024-03-17T02:18:45.527Z,74.40
2024-03-17T02:19:45.614Z,74.08
2024-03-17T02:20:45.710Z,74.08
2024-03-17T02:21:45.807Z,74.08
2024-03-17T02:22:45.893Z,74.08
2024-03-17T02:23:45.962Z,74.29
2024-03-17T02:24:46.063Z,74.50
2024-03-17T02:25:46.144Z,74.40
2024-03-17T02:26:46.283Z,74.50
2024-03-17T02:27:46.336Z,74.19
2024-03-17T02:28:46.439Z,74.19
2024-03-17T02:29:46.535Z,74.40
2024-03-17T02:30:46.620Z,74.29
2024-03-17T02:31:46.728Z,74.40
2024-03-17T02:32:46.823Z,74.19
2024-03-17T02:33:46.877Z,74.08
2024-03-17T02:34:47.001Z,74.08
2024-03-17T02:35:47.063Z,74.08
2024-03-17T02:36:47.191Z,74.19
2024-03-17T02:37:47.257Z,74.40
2024-03-17T02:38:47.354Z,74.40
2024-03-17T02:39:47.433Z,74.29
2024-03-17T02:40:47.570Z,74.19
2024-03-17T02:41:47.643Z,74.19
2024-03-17T02:42:47.735Z,74.29
2024-03-17T02:43:47.792Z,74.22
2024-03-17T02:44:47.892Z,74.32
2024-03-17T02:45:47.974Z,74.50
2024-03-17T02:46:48.084Z,74.60
2024-03-17T02:47:48.149Z,74.43
2024-03-17T02:48:48.227Z,74.43
2024-03-17T02:49:48.311Z,74.53
2024-03-17T02:50:48.427Z,74.63
2024-03-17T02:51:48.524Z,74.95
2024-03-17T02:52:48.566Z,74.95
2024-03-17T02:53:48.653Z,74.95
2024-03-17T02:54:56.454Z,75.05
2024-03-17T02:55:48.847Z,75.05
2024-03-17T02:56:48.970Z,75.05
2024-03-17T02:57:49.022Z,75.26
2024-03-17T02:58:49.121Z,75.46
2024-03-17T02:59:49.206Z,75.57
2024-03-17T03:00:49.348Z,75.71
2024-03-17T03:01:49.412Z,75.81
2024-03-17T03:02:49.512Z,75.92
2024-03-17T03:03:49.608Z,76.02
2024-03-17T03:04:49.692Z,76.12
2024-03-17T03:05:49.777Z,76.32
2024-03-17T03:06:49.905Z,76.43
2024-03-17T03:07:49.956Z,76.53
2024-03-17T03:08:50.062Z,76.53
2024-03-17T03:09:50.167Z,76.43
2024-03-17T03:10:50.276Z,76.53
2024-03-17T03:11:50.381Z,76.64
2024-03-17T03:12:50.451Z,76.74
2024-03-17T03:13:50.535Z,76.84
2024-03-17T03:14:50.661Z,76.84
2024-03-17T03:15:50.738Z,76.95
2024-03-17T03:16:50.856Z,76.84
2024-03-17T03:17:50.912Z,76.84
2024-03-17T03:18:51.024Z,76.84
2024-03-17T03:19:51.101Z,76.84
2024-03-17T03:20:51.207Z,76.95
2024-03-17T03:21:51.330Z,76.84
2024-03-17T03:22:51.404Z,76.74
2024-03-17T03:23:51.491Z,76.74
2024-03-17T03:24:51.625Z,76.84
2024-03-17T03:25:51.666Z,76.95
2024-03-17T03:26:51.845Z,76.84
2024-03-17T03:27:51.865Z,76.84
2024-03-17T03:28:51.982Z,76.95
2024-03-17T03:29:52.082Z,76.95
2024-03-17T03:30:52.198Z,77.05
2024-03-17T03:31:52.306Z,77.05
2024-03-17T03:32:52.387Z,77.05
2024-03-17T03:33:52.482Z,77.36
2024-03-17T03:34:52.607Z,77.40
2024-03-17T03:35:52.696Z,77.40
2024-03-17T03:36:52.851Z,77.40
2024-03-17T03:37:52.887Z,77.50
2024-03-17T03:38:52.975Z,77.71
2024-03-17T03:39:53.083Z,77.81
2024-03-17T03:40:53.188Z,78.06
2024-03-17T03:41:53.307Z,78.16
2024-03-17T03:42:53.387Z,78.37
2024-03-17T03:43:53.483Z,78.27
2024-03-17T03:44:53.597Z,78.37
2024-03-17T03:45:53.664Z,78.16
2024-03-17T03:46:53.795Z,77.95
2024-03-17T03:47:53.851Z,77.81
2024-03-17T03:48:53.971Z,77.61
2024-03-17T03:49:54.042Z,77.50
2024-03-17T03:50:54.156Z,77.61
2024-03-17T03:51:54.257Z,77.50
2024-03-17T03:52:54.362Z,77.50
2024-03-17T03:53:54.428Z,77.29
2024-03-17T03:54:54.550Z,77.19
2024-03-17T03:55:54.623Z,77.19
2024-03-17T03:56:54.797Z,77.29
2024-03-17T03:57:54.825Z,77.33
2024-03-17T03:58:54.927Z,77.33
2024-03-17T03:59:55.029Z,77.54
2024-03-17T04:00:55.143Z,77.64
2024-03-17T04:01:55.266Z,77.75
2024-03-17T04:02:55.359Z,77.64
2024-03-17T04:03:55.451Z,77.33
2024-03-17T04:04:55.557Z,77.33
2024-03-17T04:05:55.647Z,77.33
2024-03-17T04:06:55.799Z,77.44
2024-03-17T04:07:55.855Z,77.54
2024-03-17T04:08:55.967Z,77.44
2024-03-17T04:09:56.081Z,77.54
2024-03-17T04:10:56.176Z,77.64
2024-03-17T04:11:56.322Z,77.44
2024-03-17T04:12:56.392Z,77.44
2024-03-17T04:13:56.511Z,77.44
2024-03-17T04:14:56.622Z,77.54
2024-03-17T04:15:56.716Z,77.64
2024-03-17T04:16:56.853Z,77.85
2024-03-17T04:17:56.930Z,78.06
2024-03-17T04:18:57.039Z,78.27
2024-03-17T04:19:57.147Z,78.51
2024-03-17T04:20:57.258Z,78.51
2024-03-17T04:21:57.390Z,78.72
2024-03-17T04:22:57.447Z,79.03
2024-03-17T04:23:57.571Z,78.92
2024-03-17T04:24:57.694Z,78.92
2024-03-17T04:25:57.824Z,78.92
2024-03-17T04:26:57.923Z,78.92
2024-03-17T04:27:57.994Z,78.92
2024-03-17T04:28:58.127Z,78.82
2024-03-17T04:29:58.219Z,78.58
2024-03-17T04:30:58.335Z,78.41
2024-03-17T04:31:58.455Z,78.41
2024-03-17T04:32:58.592Z,78.41
2024-03-17T04:33:58.651Z,78.61
2024-03-17T04:34:59.139Z,78.72
2024-03-17T04:36:00.071Z,78.72
2024-03-17T04:36:59.049Z,78.82
2024-03-17T04:37:59.135Z,78.82
2024-03-17T04:38:59.243Z,78.82
2024-03-17T04:39:59.334Z,79.03
2024-03-17T04:40:59.520Z,79.13
2024-03-17T04:41:59.679Z,79.24
2024-03-17T04:42:59.666Z,79.34
2024-03-17T04:43:59.785Z,79.44
2024-03-17T04:44:59.895Z,79.65
2024-03-17T04:46:00.005Z,79.96
2024-03-17T04:47:00.160Z,80.06
2024-03-17T04:48:00.225Z,80.27
2024-03-17T04:49:00.354Z,80.37
2024-03-17T04:50:00.450Z,80.47
2024-03-17T04:51:00.553Z,80.47
2024-03-17T04:52:00.693Z,80.58
2024-03-17T04:53:00.760Z,80.58
2024-03-17T04:54:00.873Z,80.68
2024-03-17T04:55:00.976Z,80.68
2024-03-17T04:56:01.103Z,80.68
2024-03-17T04:57:01.269Z,80.58
2024-03-17T04:58:01.397Z,80.68
2024-03-17T04:59:01.430Z,80.58
2024-03-17T05:00:01.538Z,80.68
2024-03-17T05:01:01.651Z,80.79
2024-03-17T05:02:01.802Z,81.04
2024-03-17T05:03:01.890Z,81.04
2024-03-17T05:04:02.003Z,81.14
2024-03-17T05:05:02.107Z,81.04
2024-03-17T05:06:02.203Z,81.04
2024-03-17T05:07:02.364Z,80.99
2024-03-17T05:08:02.452Z,80.79
2024-03-17T05:09:02.564Z,80.68
2024-03-17T05:10:06.097Z,80.68
2024-03-17T05:11:02.825Z,80.68
2024-03-17T05:12:02.914Z,80.68
2024-03-17T05:13:03.007Z,80.68
2024-03-17T05:14:03.143Z,80.68
2024-03-17T05:15:03.251Z,80.37
2024-03-17T05:16:03.358Z,80.31
2024-03-17T05:17:03.494Z,80.31
2024-03-17T05:18:03.578Z,80.31
2024-03-17T05:19:03.722Z,80.21
2024-03-17T05:20:03.820Z,80.10
2024-03-17T05:21:03.940Z,80.10
2024-03-17T05:22:04.062Z,80.21
2024-03-17T05:23:04.164Z,80.00
2024-03-17T05:24:04.268Z,79.69
2024-03-17T05:25:04.397Z,79.69
2024-03-17T05:26:04.505Z,79.79
2024-03-17T05:27:04.634Z,79.90
2024-03-17T05:28:04.756Z,80.00
2024-03-17T05:29:04.855Z,79.79
2024-03-17T05:30:04.941Z,79.69
2024-03-17T05:31:05.067Z,79.58
2024-03-17T05:32:05.199Z,79.48
2024-03-17T05:33:05.314Z,79.48
2024-03-17T05:34:05.428Z,79.58
2024-03-17T05:35:05.542Z,79.58
2024-03-17T05:36:05.637Z,79.69
2024-03-17T05:37:08.194Z,79.69
2024-03-17T05:38:05.878Z,79.69
2024-03-17T05:39:06.042Z,79.69
2024-03-17T05:40:06.121Z,79.58
2024-03-17T05:41:06.269Z,79.48
2024-03-17T05:42:06.377Z,79.69
2024-03-17T05:43:06.473Z,79.79
2024-03-17T05:44:06.585Z,79.65
2024-03-17T05:45:06.710Z,79.55
2024-03-17T05:46:06.848Z,79.75
2024-03-17T05:47:06.966Z,79.65
2024-03-17T05:48:07.057Z,79.55
2024-03-17T05:49:07.208Z,79.44
2024-03-17T05:50:07.299Z,79.55
2024-03-17T05:51:07.424Z,79.55
2024-03-17T05:52:07.571Z,79.75
2024-03-17T05:53:07.667Z,79.85
2024-03-17T05:54:07.761Z,79.58
2024-03-17T05:55:07.902Z,79.38
2024-03-17T05:56:07.990Z,79.48
2024-03-17T05:57:08.153Z,79.58
2024-03-17T05:58:09.036Z,79.27
2024-03-17T05:59:08.344Z,79.06
2024-03-17T06:00:08.443Z,79.27
2024-03-17T06:01:08.571Z,79.13
2024-03-17T06:02:08.697Z,78.75
2024-03-17T06:03:08.798Z,78.65
2024-03-17T06:04:09.044Z,78.65
2024-03-17T06:05:09.032Z,78.75
2024-03-17T06:06:09.138Z,78.65
2024-03-17T06:07:09.323Z,78.61
2024-03-17T06:08:09.398Z,78.41
2024-03-17T06:09:09.487Z,78.20
2024-03-17T06:10:11.865Z,78.20
2024-03-17T06:11:09.733Z,78.30
2024-03-17T06:12:09.855Z,78.20
2024-03-17T06:13:09.972Z,78.30
2024-03-17T06:14:10.071Z,78.20
2024-03-17T06:15:10.168Z,78.41
2024-03-17T06:16:10.341Z,78.41
2024-03-17T06:17:10.431Z,78.41
2024-03-17T06:18:10.549Z,78.41
2024-03-17T06:19:10.664Z,78.61
2024-03-17T06:20:10.755Z,78.72
2024-03-17T06:21:10.875Z,78.72
2024-03-17T06:22:11.025Z,78.72
2024-03-17T06:23:11.091Z,78.82
2024-03-17T06:24:11.230Z,78.92
2024-03-17T06:25:11.368Z,79.13
2024-03-17T06:26:11.446Z,79.24
2024-03-17T06:27:11.604Z,79.34
2024-03-17T06:28:11.724Z,79.24
2024-03-17T06:29:11.792Z,79.24
2024-03-17T06:30:11.908Z,78.92
2024-03-17T06:31:12.062Z,78.61
2024-03-17T06:32:12.179Z,78.72
2024-03-17T06:33:12.283Z,78.82
2024-03-17T06:34:12.385Z,78.72
2024-03-17T06:35:12.525Z,78.72
2024-03-17T06:36:12.608Z,78.82
2024-03-17T06:37:12.832Z,78.92
2024-03-17T06:38:12.848Z,78.92
2024-03-17T06:39:12.961Z,78.92
2024-03-17T06:40:13.150Z,78.82
2024-03-17T06:41:13.212Z,78.72
2024-03-17T06:42:13.336Z,78.47
2024-03-17T06:43:13.438Z,78.27
2024-03-17T06:44:13.548Z,78.16
2024-03-17T06:45:13.664Z,78.06
2024-03-17T06:46:13.796Z,78.06
2024-03-17T06:47:13.910Z,78.06
2024-03-17T06:48:13.995Z,78.16
2024-03-17T06:49:14.134Z,77.85
2024-03-17T06:50:14.226Z,77.64
2024-03-17T06:51:14.356Z,77.50
2024-03-17T06:52:14.520Z,77.19
2024-03-17T06:53:14.585Z,76.98
2024-03-17T06:54:14.698Z,76.88
2024-03-17T06:55:14.852Z,76.57
2024-03-17T06:56:14.919Z,76.57
2024-03-17T06:57:15.105Z,76.36
2024-03-17T06:58:15.180Z,76.32
2024-03-17T06:59:15.286Z,75.92
2024-03-17T07:00:15.407Z,75.71
2024-03-17T07:01:15.540Z,75.81
2024-03-17T07:02:15.646Z,75.81
2024-03-17T07:03:15.732Z,75.67
2024-03-17T07:04:15.856Z,75.36
2024-03-17T07:05:15.925Z,75.05
2024-03-17T07:06:16.044Z,75.26
2024-03-17T07:07:16.204Z,75.57
2024-03-17T07:08:16.245Z,75.05
2024-03-17T07:09:16.342Z,74.74
2024-03-17T07:10:16.452Z,74.63
2024-03-17T07:11:16.571Z,74.84
2024-03-17T07:12:16.670Z,74.74
2024-03-17T07:13:16.833Z,74.74
2024-03-17T07:14:16.860Z,74.74
2024-03-17T07:15:16.985Z,74.84
2024-03-17T07:16:17.098Z,74.84
2024-03-17T07:17:17.206Z,74.53
2024-03-17T07:18:17.310Z,74.53
2024-03-17T07:19:17.896Z,74.32
2024-03-17T07:20:17.533Z,73.91
2024-03-17T07:21:17.622Z,74.22
2024-03-17T07:22:17.776Z,74.43
2024-03-17T07:23:17.842Z,74.43
2024-03-17T07:24:17.942Z,74.02
2024-03-17T07:25:18.047Z,73.08
2024-03-17T07:26:18.142Z,73.08
2024-03-17T07:27:18.267Z,73.29
2024-03-17T07:28:18.348Z,72.98
2024-03-17T07:29:18.460Z,72.98
2024-03-17T07:30:18.559Z,72.77
2024-03-17T07:31:18.675Z,72.77
2024-03-17T07:32:18.788Z,72.94
2024-03-17T07:33:18.882Z,72.94
2024-03-17T07:34:18.966Z,73.05
2024-03-17T07:35:19.072Z,73.15
2024-03-17T07:36:19.177Z,72.64
2024-03-17T07:37:19.321Z,72.39
2024-03-17T07:38:19.376Z,72.08
2024-03-17T07:39:19.490Z,71.47
2024-03-17T07:40:19.573Z,71.15
2024-03-17T07:41:19.709Z,71.12
2024-03-17T07:42:19.807Z,70.92
2024-03-17T07:43:19.903Z,70.71
2024-03-17T07:44:19.984Z,70.61
2024-03-17T07:45:20.147Z,69.78
2024-03-17T07:46:20.212Z,69.78
2024-03-17T07:47:20.343Z,69.26
2024-03-17T07:48:20.388Z,69.26
2024-03-17T07:49:20.490Z,69.57
2024-03-17T07:50:20.570Z,69.67
2024-03-17T07:51:20.676Z,69.78
2024-03-17T07:52:20.788Z,70.29
2024-03-17T07:53:20.897Z,70.61
2024-03-17T07:54:20.951Z,70.88
2024-03-17T07:55:21.042Z,70.06
2024-03-17T07:56:21.183Z,69.43
2024-03-17T07:57:21.262Z,68.71
2024-03-17T07:58:21.358Z,68.30
2024-03-17T07:59:21.436Z,68.82
2024-03-17T08:00:21.549Z,69.12
2024-03-17T08:01:21.662Z,68.82
2024-03-17T08:02:21.733Z,68.88
2024-03-17T08:03:21.846Z,68.68
2024-03-17T08:04:21.897Z,68.58
2024-03-17T08:05:22.007Z,68.48
2024-03-17T08:06:22.096Z,68.27
2024-03-17T08:07:22.224Z,68.16
2024-03-17T08:08:22.272Z,68.16
2024-03-17T08:09:22.368Z,68.37
2024-03-17T08:10:22.445Z,68.37
2024-03-17T08:11:22.548Z,68.34
2024-03-17T08:12:22.633Z,67.82
2024-03-17T08:13:22.703Z,67.21
2024-03-17T08:14:22.794Z,66.38
2024-03-17T08:15:22.878Z,66.38
2024-03-17T08:16:22.973Z,66.55
2024-03-17T08:17:23.067Z,67.17
2024-03-17T08:18:23.117Z,67.27
2024-03-17T08:19:23.218Z,66.66
2024-03-17T08:20:23.296Z,66.63
2024-03-17T08:21:23.393Z,65.80
2024-03-17T08:22:23.477Z,65.46
2024-03-17T08:23:23.566Z,65.18
2024-03-17T08:24:23.626Z,64.98
2024-03-17T08:25:23.716Z,65.18
2024-03-17T08:26:23.772Z,65.49
2024-03-17T08:27:23.880Z,66.63
2024-03-17T08:28:23.915Z,65.70
2024-03-17T08:29:24.011Z,64.56
2024-03-17T08:30:26.881Z,64.87
2024-03-17T08:31:24.169Z,64.56
2024-03-17T08:32:24.245Z,64.43
2024-03-17T08:33:24.287Z,64.84
2024-03-17T08:34:24.376Z,64.74
2024-03-17T08:35:24.449Z,64.95
2024-03-17T08:36:24.514Z,65.77
2024-03-17T08:37:24.612Z,64.22
2024-03-17T08:38:24.666Z,64.43
2024-03-17T08:39:24.727Z,65.18
2024-03-17T08:40:24.796Z,65.67
2024-03-17T08:41:24.864Z,65.88
2024-03-17T08:42:24.952Z,65.36
2024-03-17T08:43:24.996Z,65.56
2024-03-17T08:44:25.471Z,65.36
2024-03-17T08:45:26.922Z,65.25
2024-03-17T08:46:25.206Z,65.98
2024-03-17T08:47:25.286Z,65.77
2024-03-17T08:48:25.379Z,65.46
2024-03-17T08:49:25.422Z,65.59
2024-03-17T08:50:25.494Z,65.91
2024-03-17T08:51:25.547Z,65.80
2024-03-17T08:52:25.684Z,65.80
2024-03-17T08:53:25.712Z,67.07
2024-03-17T08:54:25.795Z,67.35
2024-03-17T08:55:25.836Z,67.45
2024-03-17T08:56:25.921Z,67.45
2024-03-17T08:57:25.989Z,66.21
2024-03-17T08:58:26.082Z,65.70
2024-03-17T08:59:26.130Z,65.39
2024-03-17T09:00:26.202Z,64.98
2024-03-17T09:01:26.272Z,63.95
2024-03-17T09:02:26.324Z,63.32
2024-03-17T09:03:26.435Z,63.64
2024-03-17T09:04:26.467Z,63.74
2024-03-17T09:05:26.552Z,63.43
2024-03-17T09:06:26.612Z,63.53
2024-03-17T09:07:26.695Z,64.15
2024-03-17T09:08:26.789Z,64.15
2024-03-17T09:09:26.872Z,63.92
2024-03-17T09:10:26.895Z,63.60
2024-03-17T09:11:26.970Z,63.27
2024-03-17T09:12:27.041Z,62.65
2024-03-17T09:13:27.199Z,62.03
2024-03-17T09:14:27.156Z,61.93
2024-03-17T09:15:27.224Z,61.41
2024-03-17T09:16:27.816Z,61.00
2024-03-17T09:17:27.345Z,61.13
2024-03-17T09:18:27.436Z,61.33
2024-03-17T09:19:27.479Z,62.26
2024-03-17T09:20:27.544Z,61.85
2024-03-17T09:21:27.614Z,61.24
2024-03-17T09:22:27.727Z,61.24
2024-03-17T09:23:27.774Z,61.54
2024-03-17T09:24:27.803Z,62.03
2024-03-17T09:25:27.877Z,62.75
2024-03-17T09:26:27.940Z,62.72
2024-03-17T09:27:28.041Z,60.84
2024-03-17T09:28:28.094Z,61.15
2024-03-17T09:29:28.120Z,61.53
2024-03-17T09:30:28.215Z,60.71
2024-03-17T09:31:28.269Z,60.17
2024-03-17T09:32:28.333Z,58.73
2024-03-17T09:33:28.407Z,59.14
2024-03-17T09:34:28.434Z,60.06
2024-03-17T09:35:28.505Z,59.96
2024-03-17T09:36:28.537Z,59.55
2024-03-17T09:37:28.599Z,60.06
2024-03-17T09:38:28.679Z,59.65
2024-03-17T09:39:28.718Z,59.24
2024-03-17T09:40:28.785Z,59.24
2024-03-17T09:41:28.822Z,59.34
2024-03-17T09:42:28.885Z,58.93
2024-03-17T09:43:28.961Z,59.14
2024-03-17T09:44:28.988Z,59.03
2024-03-17T09:45:29.040Z,58.83
2024-03-17T09:46:29.111Z,58.83
2024-03-17T09:47:29.178Z,59.03
2024-03-17T09:48:29.208Z,59.86
2024-03-17T09:49:29.266Z,60.27
2024-03-17T09:50:29.364Z,59.45
2024-03-17T09:51:29.413Z,58.62
2024-03-17T09:52:29.434Z,59.03
2024-03-17T09:53:29.531Z,58.96
2024-03-17T09:54:29.563Z,57.73
2024-03-17T09:55:29.601Z,58.16
2024-03-17T09:56:29.641Z,58.89
2024-03-17T09:57:29.716Z,58.29
2024-03-17T09:58:29.816Z,58.60
2024-03-17T09:59:29.833Z,58.91
2024-03-17T10:00:29.865Z,59.01
2024-03-17T10:01:29.932Z,59.19
2024-03-17T10:02:29.965Z,59.19
2024-03-17T10:03:30.053Z,59.61
2024-03-17T10:04:30.103Z,59.40
2024-03-17T10:05:30.168Z,59.40
2024-03-17T10:06:30.236Z,59.40
2024-03-17T10:07:30.320Z,59.50
2024-03-17T10:08:30.332Z,59.61
2024-03-17T10:09:30.716Z,59.84
2024-03-17T10:10:30.387Z,59.63
2024-03-17T10:11:30.490Z,59.63
2024-03-17T10:12:30.519Z,60.15
2024-03-17T10:13:30.604Z,59.01
2024-03-17T10:14:30.624Z,59.30
2024-03-17T10:15:30.681Z,59.09
2024-03-17T10:16:30.731Z,60.02
2024-03-17T10:17:30.772Z,61.05
2024-03-17T10:18:30.868Z,59.99
2024-03-17T10:19:32.438Z,59.27
2024-03-17T10:20:30.997Z,59.65
2024-03-17T10:21:31.016Z,58.03
2024-03-17T10:22:31.035Z,58.24
2024-03-17T10:23:31.116Z,58.86
2024-03-17T10:24:31.169Z,59.78
2024-03-17T10:25:31.236Z,59.58
2024-03-17T10:26:31.245Z,59.17
2024-03-17T10:27:31.292Z,58.65
2024-03-17T10:28:32.109Z,58.65
2024-03-17T10:29:31.444Z,58.96
2024-03-17T10:30:31.440Z,58.45
2024-03-17T10:31:31.517Z,57.73
2024-03-17T10:32:31.570Z,58.24
2024-03-17T10:33:31.661Z,58.54
2024-03-17T10:34:31.684Z,58.03
2024-03-17T10:35:33.438Z,57.93
2024-03-17T10:36:31.890Z,58.24
2024-03-17T10:37:31.970Z,58.54
2024-03-17T10:38:31.906Z,58.65
2024-03-17T10:39:31.930Z,58.54
2024-03-17T10:40:31.987Z,58.54
2024-03-17T10:41:32.009Z,58.45
2024-03-17T10:42:32.054Z,58.34
2024-03-17T10:43:32.137Z,58.34
2024-03-17T10:44:32.156Z,58.45
2024-03-17T10:45:32.212Z,58.89
2024-03-17T10:46:38.549Z,59.27
2024-03-17T10:47:32.301Z,59.27
2024-03-17T10:48:32.355Z,58.65
2024-03-17T10:49:32.406Z,58.54
2024-03-17T10:50:32.429Z,57.93
2024-03-17T10:51:32.487Z,57.01
2024-03-17T10:52:41.029Z,56.90
2024-03-17T10:53:32.600Z,56.90
2024-03-17T10:54:32.628Z,57.10
2024-03-17T10:55:32.722Z,56.90
2024-03-17T10:56:32.743Z,56.36
2024-03-17T10:57:32.813Z,56.36
2024-03-17T10:58:32.861Z,56.46
2024-03-17T10:59:32.906Z,55.95
2024-03-17T11:00:32.961Z,55.95
2024-03-17T11:01:33.009Z,56.95
2024-03-17T11:02:33.060Z,57.98
2024-03-17T11:03:33.117Z,58.26
2024-03-17T11:04:33.142Z,57.13
2024-03-17T11:05:33.232Z,54.85
2024-03-17T11:06:33.243Z,54.02
2024-03-17T11:07:33.298Z,53.81
2024-03-17T11:08:33.399Z,53.59
2024-03-17T11:09:33.381Z,53.89
2024-03-17T11:10:33.428Z,53.79
2024-03-17T11:11:33.495Z,53.49
2024-03-17T11:12:33.509Z,54.00
2024-03-17T11:13:33.630Z,53.38
2024-03-17T11:14:33.608Z,52.87
2024-03-17T11:15:33.658Z,52.87
2024-03-17T11:16:33.705Z,52.97
2024-03-17T11:17:33.733Z,53.49
2024-03-17T11:18:33.782Z,53.59
2024-03-17T11:19:33.807Z,51.97
2024-03-17T11:20:33.841Z,51.97
2024-03-17T11:21:33.895Z,51.87
2024-03-17T11:22:33.962Z,52.38
2024-03-17T11:23:33.989Z,52.69
2024-03-17T11:24:33.973Z,52.79
2024-03-17T11:25:34.034Z,52.28
2024-03-17T11:26:34.051Z,53.08
2024-03-17T11:27:34.105Z,52.97
2024-03-17T11:28:34.150Z,52.46
2024-03-17T11:29:34.171Z,51.12
2024-03-17T11:30:34.206Z,51.33
2024-03-17T11:31:34.295Z,52.25
2024-03-17T11:32:34.306Z,51.64
2024-03-17T11:33:34.346Z,51.84
2024-03-17T11:34:34.360Z,52.46
2024-03-17T11:35:34.466Z,53.17
2024-03-17T11:36:34.410Z,52.76
2024-03-17T11:37:34.444Z,52.46
2024-03-17T11:38:34.493Z,52.25
2024-03-17T11:39:34.528Z,53.08
2024-03-17T11:40:34.542Z,52.66
2024-03-17T11:41:34.604Z,50.48
2024-03-17T11:42:34.621Z,50.38
2024-03-17T11:43:34.675Z,49.87
2024-03-17T11:44:34.704Z,49.26
2024-03-17T11:45:34.735Z,49.17
2024-03-17T11:46:34.794Z,49.79
2024-03-17T11:47:34.820Z,49.99
2024-03-17T11:48:34.857Z,49.99
2024-03-17T11:49:34.913Z,50.28
2024-03-17T11:50:34.926Z,49.35
2024-03-17T11:51:34.947Z,49.77
2024-03-17T11:52:34.989Z,50.38
2024-03-17T11:53:35.029Z,50.79
2024-03-17T11:54:35.025Z,49.85
2024-03-17T11:55:35.065Z,51.28
2024-03-17T11:56:35.085Z,57.75
2024-03-17T11:57:35.126Z,54.23
2024-03-17T11:58:35.184Z,50.31
2024-03-17T11:59:35.188Z,48.77
2024-03-17T12:00:35.222Z,47.75
2024-03-17T12:01:35.261Z,47.77
2024-03-17T12:02:35.320Z,48.08
2024-03-17T12:03:35.348Z,48.49
2024-03-17T12:04:35.337Z,49.10
2024-03-17T12:05:35.331Z,48.80
2024-03-17T12:06:35.346Z,49.18
2024-03-17T12:07:35.406Z,48.57
2024-03-17T12:08:35.422Z,48.16
2024-03-17T12:09:35.450Z,48.36
2024-03-17T12:10:35.460Z,48.24
2024-03-17T12:11:35.480Z,49.06
2024-03-17T12:12:35.492Z,48.65
2024-03-17T12:13:35.557Z,47.93
2024-03-17T12:14:35.550Z,47.71
2024-03-17T12:15:35.556Z,46.68
2024-03-17T12:16:35.562Z,46.48
2024-03-17T12:17:35.594Z,46.70
2024-03-17T12:18:35.604Z,46.81
2024-03-17T12:19:35.654Z,47.73
2024-03-17T12:20:35.636Z,48.24
2024-03-17T12:21:35.652Z,47.09
2024-03-17T12:22:35.669Z,46.78
2024-03-17T12:23:35.695Z,46.48
2024-03-17T12:24:35.721Z,46.17
2024-03-17T12:25:35.730Z,46.30
2024-03-17T12:26:35.721Z,47.01
2024-03-17T12:27:35.768Z,47.31
2024-03-17T12:28:35.747Z,46.99
2024-03-17T12:29:35.790Z,46.89
2024-03-17T12:30:35.790Z,46.89
2024-03-17T12:31:35.798Z,46.78
2024-03-17T12:32:35.820Z,46.68
2024-03-17T12:33:35.846Z,47.09
2024-03-17T12:34:35.842Z,46.60
2024-03-17T12:35:35.862Z,46.39
2024-03-17T12:36:35.857Z,46.83
2024-03-17T12:37:35.863Z,46.83
2024-03-17T12:38:35.888Z,47.64
2024-03-17T12:39:35.923Z,47.44
2024-03-17T12:40:35.902Z,47.64
2024-03-17T12:41:35.922Z,48.26
2024-03-17T12:42:35.928Z,48.16
2024-03-17T12:43:35.948Z,47.96
2024-03-17T12:44:35.961Z,47.75
2024-03-17T12:45:35.972Z,47.96
2024-03-17T12:46:36.012Z,48.67
2024-03-17T12:47:35.994Z,49.08
2024-03-17T12:48:36.003Z,48.47
2024-03-17T12:49:36.027Z,47.96
2024-03-17T12:50:36.004Z,48.03
2024-03-17T12:51:36.030Z,47.64
2024-03-17T12:52:36.030Z,47.75
2024-03-17T12:53:36.036Z,48.06